Clear Lake Shores, Texas
Current Conditions -  °F | °C
As of 6:50 AM on Friday 19 Dec 2014 (Local Time) from KEFD Reporting Station
Light Rain Light Rain  
Wind Chill: 61°   Ceiling: 500
Heat Index: 61°   Visibility: 7mi
Dew Point: 61°   Wind: 9mph
Humidity: 100%   Direction: 80°E
Pressure: 30.02"   Gusts: NA
Location:  29.5352°N, 95.0345°W
Report Text: KEFD 191250Z 08008KT 7SM -RA BKN005 BKN024 16/16 A3002
Loading
Personal Weather Stations






























Interactive Weather Map New forecast layout! Learn more

10-Day Weather Forecast

Advertisements
Track Severe Weather on mobile